Terminal Aerodrome Forecast
Issued by NWS

Home | Current Version | Previous Version | Text Only | Print | Product List | Glossary On
Versions: 1 2 3 4 5 6 7 8 9 10 11 12 13 14 15 16 17 18 19 20 21 22 23 24
000
FTUS41 KBUF 241700
TAFIAG
TAF
KIAG 241735Z 2418/2518 27012KT P6SM BKN200
     FM242300 25006KT P6SM SCT100 SCT250
     FM250500 24005KT P6SM BKN035
     FM250900 23007KT P6SM OVC030
     FM251300 22012KT P6SM BKN035
     FM251600 23018G28KT P6SM BKN080=

USA.gov is the U.S. government's official web portal to all federal, state and local government web resources and services.